sensor_id;sensor_type;location;lat;lon;timestamp;temperature;humidity
8910;DHT22;4490;49.072;8.804;2023-02-15T00:00:20;2.30;99.90
8910;DHT22;4490;49.072;8.804;2023-02-15T00:02:45;2.30;99.90
8910;DHT22;4490;49.072;8.804;2023-02-15T00:05:11;2.30;99.90
8910;DHT22;4490;49.072;8.804;2023-02-15T00:07:36;2.30;99.90
8910;DHT22;4490;49.072;8.804;2023-02-15T00:10:03;2.40;99.90
8910;DHT22;4490;49.072;8.804;2023-02-15T00:12:29;2.40;99.90
8910;DHT22;4490;49.072;8.804;2023-02-15T00:14:54;2.40;99.90
8910;DHT22;4490;49.072;8.804;2023-02-15T00:17:20;2.40;99.90
8910;DHT22;4490;49.072;8.804;2023-02-15T00:19:46;2.40;99.90
8910;DHT22;4490;49.072;8.804;2023-02-15T00:22:12;2.40;99.90
8910;DHT22;4490;49.072;8.804;2023-02-15T00:24:38;2.40;99.90
8910;DHT22;4490;49.072;8.804;2023-02-15T00:27:04;2.40;99.90
8910;DHT22;4490;49.072;8.804;2023-02-15T00:29:29;2.40;99.90
8910;DHT22;4490;49.072;8.804;2023-02-15T00:31:55;2.40;99.90
8910;DHT22;4490;49.072;8.804;2023-02-15T00:34:23;2.40;99.90
8910;DHT22;4490;49.072;8.804;2023-02-15T00:36:49;2.40;99.90
8910;DHT22;4490;49.072;8.804;2023-02-15T00:39:16;2.40;99.90
8910;DHT22;4490;49.072;8.804;2023-02-15T00:41:42;2.40;99.90
8910;DHT22;4490;49.072;8.804;2023-02-15T00:44:08;2.40;99.90
8910;DHT22;4490;49.072;8.804;2023-02-15T00:46:35;2.40;99.90
8910;DHT22;4490;49.072;8.804;2023-02-15T00:49:01;2.40;99.90
8910;DHT22;4490;49.072;8.804;2023-02-15T00:51:27;2.30;99.90
8910;DHT22;4490;49.072;8.804;2023-02-15T00:53:53;2.40;99.90
8910;DHT22;4490;49.072;8.804;2023-02-15T00:56:18;2.40;99.90
8910;DHT22;4490;49.072;8.804;2023-02-15T00:58:44;2.40;99.90
8910;DHT22;4490;49.072;8.804;2023-02-15T01:01:16;2.40;99.90
8910;DHT22;4490;49.072;8.804;2023-02-15T01:03:42;2.40;99.90
8910;DHT22;4490;49.072;8.804;2023-02-15T01:06:09;2.40;99.90
8910;DHT22;4490;49.072;8.804;2023-02-15T01:08:35;2.40;99.90
8910;DHT22;4490;49.072;8.804;2023-02-15T01:11:10;2.40;99.90
8910;DHT22;4490;49.072;8.804;2023-02-15T01:13:36;2.40;99.90
8910;DHT22;4490;49.072;8.804;2023-02-15T01:16:02;2.30;99.90
8910;DHT22;4490;49.072;8.804;2023-02-15T01:18:28;2.30;99.90
8910;DHT22;4490;49.072;8.804;2023-02-15T01:20:53;2.30;99.90
8910;DHT22;4490;49.072;8.804;2023-02-15T01:23:19;2.40;99.90
8910;DHT22;4490;49.072;8.804;2023-02-15T01:25:45;2.40;99.90
8910;DHT22;4490;49.072;8.804;2023-02-15T01:28:11;2.40;99.90
8910;DHT22;4490;49.072;8.804;2023-02-15T01:30:37;2.40;99.90
8910;DHT22;4490;49.072;8.804;2023-02-15T01:33:02;2.40;99.90
8910;DHT22;4490;49.072;8.804;2023-02-15T01:35:28;2.50;99.90
8910;DHT22;4490;49.072;8.804;2023-02-15T01:37:55;2.50;99.90
8910;DHT22;4490;49.072;8.804;2023-02-15T01:40:22;2.50;99.90
8910;DHT22;4490;49.072;8.804;2023-02-15T01:42:51;2.50;99.90
8910;DHT22;4490;49.072;8.804;2023-02-15T01:45:26;2.50;99.90
8910;DHT22;4490;49.072;8.804;2023-02-15T01:51:00;2.50;99.90
8910;DHT22;4490;49.072;8.804;2023-02-15T01:53:44;2.40;99.90
8910;DHT22;4490;49.072;8.804;2023-02-15T01:56:16;2.50;99.90
8910;DHT22;4490;49.072;8.804;2023-02-15T01:58:43;2.40;99.90
8910;DHT22;4490;49.072;8.804;2023-02-15T02:01:09;2.40;99.90
8910;DHT22;4490;49.072;8.804;2023-02-15T02:06:16;2.40;99.90
8910;DHT22;4490;49.072;8.804;2023-02-15T02:08:42;2.40;99.90
8910;DHT22;4490;49.072;8.804;2023-02-15T02:11:13;2.40;99.90
8910;DHT22;4490;49.072;8.804;2023-02-15T02:13:40;2.40;99.90
8910;DHT22;4490;49.072;8.804;2023-02-15T02:16:37;2.40;99.90
8910;DHT22;4490;49.072;8.804;2023-02-15T02:28:01;2.40;99.90
8910;DHT22;4490;49.072;8.804;2023-02-15T02:31:35;2.40;99.90
8910;DHT22;4490;49.072;8.804;2023-02-15T02:44:18;2.20;99.90
8910;DHT22;4490;49.072;8.804;2023-02-15T02:46:54;2.20;99.90
8910;DHT22;4490;49.072;8.804;2023-02-15T02:49:39;2.30;99.90
8910;DHT22;4490;49.072;8.804;2023-02-15T02:52:39;2.30;99.90
8910;DHT22;4490;49.072;8.804;2023-02-15T02:55:40;2.30;99.90
8910;DHT22;4490;49.072;8.804;2023-02-15T02:58:32;2.30;99.90
8910;DHT22;4490;49.072;8.804;2023-02-15T03:01:11;2.30;99.90
8910;DHT22;4490;49.072;8.804;2023-02-15T03:03:45;2.30;99.90
8910;DHT22;4490;49.072;8.804;2023-02-15T03:06:25;2.20;99.90
8910;DHT22;4490;49.072;8.804;2023-02-15T03:08:58;2.30;99.90
8910;DHT22;4490;49.072;8.804;2023-02-15T03:11:26;2.20;99.90
8910;DHT22;4490;49.072;8.804;2023-02-15T03:13:51;2.20;99.90
8910;DHT22;4490;49.072;8.804;2023-02-15T03:16:18;2.20;99.90
8910;DHT22;4490;49.072;8.804;2023-02-15T03:19:02;2.20;99.90
8910;DHT22;4490;49.072;8.804;2023-02-15T03:21:47;2.20;99.90
8910;DHT22;4490;49.072;8.804;2023-02-15T03:24:30;2.20;99.90
8910;DHT22;4490;49.072;8.804;2023-02-15T03:26:57;2.20;99.90
8910;DHT22;4490;49.072;8.804;2023-02-15T03:29:25;2.20;99.90
8910;DHT22;4490;49.072;8.804;2023-02-15T03:32:00;2.20;99.90
8910;DHT22;4490;49.072;8.804;2023-02-15T03:34:26;2.20;99.90
8910;DHT22;4490;49.072;8.804;2023-02-15T03:39:48;2.20;99.90
8910;DHT22;4490;49.072;8.804;2023-02-15T03:45:07;2.30;99.90
8910;DHT22;4490;49.072;8.804;2023-02-15T03:47:37;2.30;99.90
8910;DHT22;4490;49.072;8.804;2023-02-15T03:50:08;2.20;99.90
8910;DHT22;4490;49.072;8.804;2023-02-15T03:52:56;2.20;99.90
8910;DHT22;4490;49.072;8.804;2023-02-15T03:55:22;2.20;99.90
8910;DHT22;4490;49.072;8.804;2023-02-15T03:57:48;2.20;99.90
8910;DHT22;4490;49.072;8.804;2023-02-15T04:00:35;2.20;99.90
8910;DHT22;4490;49.072;8.804;2023-02-15T04:03:35;2.10;99.90
8910;DHT22;4490;49.072;8.804;2023-02-15T04:06:03;2.10;99.90
8910;DHT22;4490;49.072;8.804;2023-02-15T04:08:28;2.10;99.90
8910;DHT22;4490;49.072;8.804;2023-02-15T04:11:12;2.10;99.90
8910;DHT22;4490;49.072;8.804;2023-02-15T04:13:38;2.10;99.90
8910;DHT22;4490;49.072;8.804;2023-02-15T04:16:04;2.10;99.90
8910;DHT22;4490;49.072;8.804;2023-02-15T04:21:19;2.10;99.90
8910;DHT22;4490;49.072;8.804;2023-02-15T04:24:03;2.10;99.90
8910;DHT22;4490;49.072;8.804;2023-02-15T04:26:47;2.20;99.90
8910;DHT22;4490;49.072;8.804;2023-02-15T04:29:14;2.10;99.90
8910;DHT22;4490;49.072;8.804;2023-02-15T04:31:40;2.10;99.90
8910;DHT22;4490;49.072;8.804;2023-02-15T04:34:06;2.10;99.90
8910;DHT22;4490;49.072;8.804;2023-02-15T04:36:32;2.10;99.90
8910;DHT22;4490;49.072;8.804;2023-02-15T04:38:57;2.10;99.90
8910;DHT22;4490;49.072;8.804;2023-02-15T04:41:23;2.10;99.90
8910;DHT22;4490;49.072;8.804;2023-02-15T04:43:48;2.10;99.90
8910;DHT22;4490;49.072;8.804;2023-02-15T04:46:14;2.10;99.90
8910;DHT22;4490;49.072;8.804;2023-02-15T04:48:40;2.10;99.90
8910;DHT22;4490;49.072;8.804;2023-02-15T04:51:06;2.10;99.90
8910;DHT22;4490;49.072;8.804;2023-02-15T04:53:32;2.10;99.90
8910;DHT22;4490;49.072;8.804;2023-02-15T04:55:58;2.10;99.90
8910;DHT22;4490;49.072;8.804;2023-02-15T04:58:24;2.10;99.90
8910;DHT22;4490;49.072;8.804;2023-02-15T05:00:49;2.00;99.90
8910;DHT22;4490;49.072;8.804;2023-02-15T05:03:15;2.00;99.90
8910;DHT22;4490;49.072;8.804;2023-02-15T05:05:41;2.10;99.90
8910;DHT22;4490;49.072;8.804;2023-02-15T05:08:06;2.10;99.90
8910;DHT22;4490;49.072;8.804;2023-02-15T05:10:32;2.10;99.90
8910;DHT22;4490;49.072;8.804;2023-02-15T05:12:57;2.10;99.90
8910;DHT22;4490;49.072;8.804;2023-02-15T05:15:23;2.10;99.90
8910;DHT22;4490;49.072;8.804;2023-02-15T05:17:49;2.10;99.90
8910;DHT22;4490;49.072;8.804;2023-02-15T05:20:15;2.10;99.90
8910;DHT22;4490;49.072;8.804;2023-02-15T05:22:40;2.10;99.90
8910;DHT22;4490;49.072;8.804;2023-02-15T05:25:07;2.10;99.90
8910;DHT22;4490;49.072;8.804;2023-02-15T05:27:52;2.10;99.90
8910;DHT22;4490;49.072;8.804;2023-02-15T05:30:36;2.00;99.90
8910;DHT22;4490;49.072;8.804;2023-02-15T05:33:01;2.00;99.90
8910;DHT22;4490;49.072;8.804;2023-02-15T05:35:27;2.00;99.90
8910;DHT22;4490;49.072;8.804;2023-02-15T05:37:52;2.00;99.90
8910;DHT22;4490;49.072;8.804;2023-02-15T05:40:18;1.90;99.90
8910;DHT22;4490;49.072;8.804;2023-02-15T05:42:44;2.00;99.90
8910;DHT22;4490;49.072;8.804;2023-02-15T05:45:09;2.00;99.90
8910;DHT22;4490;49.072;8.804;2023-02-15T05:47:35;2.00;99.90
8910;DHT22;4490;49.072;8.804;2023-02-15T05:50:00;2.00;99.90
8910;DHT22;4490;49.072;8.804;2023-02-15T05:52:26;2.00;99.90
8910;DHT22;4490;49.072;8.804;2023-02-15T05:54:52;2.00;99.90
8910;DHT22;4490;49.072;8.804;2023-02-15T05:57:17;2.00;99.90
8910;DHT22;4490;49.072;8.804;2023-02-15T05:59:43;2.00;99.90
8910;DHT22;4490;49.072;8.804;2023-02-15T06:02:08;2.00;99.90
8910;DHT22;4490;49.072;8.804;2023-02-15T06:04:34;2.00;99.90
8910;DHT22;4490;49.072;8.804;2023-02-15T06:07:00;2.00;99.90
8910;DHT22;4490;49.072;8.804;2023-02-15T06:09:25;2.00;99.90
8910;DHT22;4490;49.072;8.804;2023-02-15T06:11:51;2.10;99.90
8910;DHT22;4490;49.072;8.804;2023-02-15T06:14:16;2.10;99.90
8910;DHT22;4490;49.072;8.804;2023-02-15T06:16:42;2.10;99.90
8910;DHT22;4490;49.072;8.804;2023-02-15T06:19:08;2.00;99.90
8910;DHT22;4490;49.072;8.804;2023-02-15T06:21:33;2.00;99.90
8910;DHT22;4490;49.072;8.804;2023-02-15T06:23:59;2.00;99.90
8910;DHT22;4490;49.072;8.804;2023-02-15T06:26:24;2.00;99.90
8910;DHT22;4490;49.072;8.804;2023-02-15T06:28:50;2.00;99.90
8910;DHT22;4490;49.072;8.804;2023-02-15T06:31:16;1.90;99.90
8910;DHT22;4490;49.072;8.804;2023-02-15T06:33:41;1.90;99.90
8910;DHT22;4490;49.072;8.804;2023-02-15T06:36:07;2.00;99.90
8910;DHT22;4490;49.072;8.804;2023-02-15T06:38:33;2.00;99.90
8910;DHT22;4490;49.072;8.804;2023-02-15T06:40:58;2.00;99.90
8910;DHT22;4490;49.072;8.804;2023-02-15T06:43:24;2.00;99.90
8910;DHT22;4490;49.072;8.804;2023-02-15T06:45:49;1.90;99.90
8910;DHT22;4490;49.072;8.804;2023-02-15T06:48:15;1.90;99.90
8910;DHT22;4490;49.072;8.804;2023-02-15T06:50:41;1.90;99.90
8910;DHT22;4490;49.072;8.804;2023-02-15T06:53:06;1.90;99.90
8910;DHT22;4490;49.072;8.804;2023-02-15T06:55:32;1.90;99.90
8910;DHT22;4490;49.072;8.804;2023-02-15T06:57:57;1.90;99.90
8910;DHT22;4490;49.072;8.804;2023-02-15T07:00:23;1.90;99.90
8910;DHT22;4490;49.072;8.804;2023-02-15T07:02:58;1.80;99.90
8910;DHT22;4490;49.072;8.804;2023-02-15T07:05:25;1.80;99.90
8910;DHT22;4490;49.072;8.804;2023-02-15T07:07:56;1.80;99.90
8910;DHT22;4490;49.072;8.804;2023-02-15T07:10:22;1.90;99.90
8910;DHT22;4490;49.072;8.804;2023-02-15T07:12:49;1.90;99.90
8910;DHT22;4490;49.072;8.804;2023-02-15T07:15:17;1.90;99.90
8910;DHT22;4490;49.072;8.804;2023-02-15T07:17:44;1.90;99.90
8910;DHT22;4490;49.072;8.804;2023-02-15T07:20:20;1.90;99.90
8910;DHT22;4490;49.072;8.804;2023-02-15T07:22:46;1.90;99.90
8910;DHT22;4490;49.072;8.804;2023-02-15T07:25:13;2.00;99.90
8910;DHT22;4490;49.072;8.804;2023-02-15T07:27:39;2.00;99.90
8910;DHT22;4490;49.072;8.804;2023-02-15T07:30:06;2.00;99.90
8910;DHT22;4490;49.072;8.804;2023-02-15T07:32:33;2.00;99.90
8910;DHT22;4490;49.072;8.804;2023-02-15T07:34:59;2.00;99.90
8910;DHT22;4490;49.072;8.804;2023-02-15T07:37:25;1.90;99.90
8910;DHT22;4490;49.072;8.804;2023-02-15T07:39:51;1.90;99.90
8910;DHT22;4490;49.072;8.804;2023-02-15T07:42:16;1.90;99.90
8910;DHT22;4490;49.072;8.804;2023-02-15T07:44:43;2.00;99.90
8910;DHT22;4490;49.072;8.804;2023-02-15T07:47:09;2.00;99.90
8910;DHT22;4490;49.072;8.804;2023-02-15T07:49:34;1.90;99.90
8910;DHT22;4490;49.072;8.804;2023-02-15T07:52:01;1.90;99.90
8910;DHT22;4490;49.072;8.804;2023-02-15T07:54:27;1.90;99.90
8910;DHT22;4490;49.072;8.804;2023-02-15T07:56:53;1.90;99.90
8910;DHT22;4490;49.072;8.804;2023-02-15T07:59:18;1.90;99.90
8910;DHT22;4490;49.072;8.804;2023-02-15T08:01:44;1.90;99.90
8910;DHT22;4490;49.072;8.804;2023-02-15T08:04:09;1.90;99.90
8910;DHT22;4490;49.072;8.804;2023-02-15T08:06:37;1.90;99.90
8910;DHT22;4490;49.072;8.804;2023-02-15T08:09:08;1.90;99.90
8910;DHT22;4490;49.072;8.804;2023-02-15T08:11:35;1.90;99.90
8910;DHT22;4490;49.072;8.804;2023-02-15T08:14:13;1.90;99.90
8910;DHT22;4490;49.072;8.804;2023-02-15T08:19:11;1.90;99.90
8910;DHT22;4490;49.072;8.804;2023-02-15T08:21:40;1.90;99.90
8910;DHT22;4490;49.072;8.804;2023-02-15T08:24:07;1.90;99.90
8910;DHT22;4490;49.072;8.804;2023-02-15T08:26:34;1.90;99.90
8910;DHT22;4490;49.072;8.804;2023-02-15T08:29:00;1.90;99.90
8910;DHT22;4490;49.072;8.804;2023-02-15T08:31:27;1.90;99.90
8910;DHT22;4490;49.072;8.804;2023-02-15T08:33:55;1.90;99.90
8910;DHT22;4490;49.072;8.804;2023-02-15T08:36:24;2.00;99.90
8910;DHT22;4490;49.072;8.804;2023-02-15T08:38:50;2.00;99.90
8910;DHT22;4490;49.072;8.804;2023-02-15T08:41:18;2.00;99.90
8910;DHT22;4490;49.072;8.804;2023-02-15T08:43:45;2.00;99.90
8910;DHT22;4490;49.072;8.804;2023-02-15T08:46:13;2.10;99.90
8910;DHT22;4490;49.072;8.804;2023-02-15T08:48:38;2.10;99.90
8910;DHT22;4490;49.072;8.804;2023-02-15T08:51:28;2.00;99.90
8910;DHT22;4490;49.072;8.804;2023-02-15T08:53:56;2.00;99.90
8910;DHT22;4490;49.072;8.804;2023-02-15T08:56:25;2.00;99.90
8910;DHT22;4490;49.072;8.804;2023-02-15T08:58:52;2.00;99.90
8910;DHT22;4490;49.072;8.804;2023-02-15T09:01:20;2.00;99.90
8910;DHT22;4490;49.072;8.804;2023-02-15T09:03:49;2.10;99.90
8910;DHT22;4490;49.072;8.804;2023-02-15T09:06:16;2.20;99.90
8910;DHT22;4490;49.072;8.804;2023-02-15T09:08:42;2.20;99.90
8910;DHT22;4490;49.072;8.804;2023-02-15T09:11:12;2.20;99.90
8910;DHT22;4490;49.072;8.804;2023-02-15T09:13:39;2.30;99.90
8910;DHT22;4490;49.072;8.804;2023-02-15T09:16:07;2.20;99.90
8910;DHT22;4490;49.072;8.804;2023-02-15T09:18:35;2.30;99.90
8910;DHT22;4490;49.072;8.804;2023-02-15T09:21:07;2.30;99.90
8910;DHT22;4490;49.072;8.804;2023-02-15T09:23:33;2.30;99.90
8910;DHT22;4490;49.072;8.804;2023-02-15T09:26:02;2.30;99.90
8910;DHT22;4490;49.072;8.804;2023-02-15T09:28:28;2.30;99.90
8910;DHT22;4490;49.072;8.804;2023-02-15T09:30:54;2.30;99.90
8910;DHT22;4490;49.072;8.804;2023-02-15T09:33:20;2.30;99.90
8910;DHT22;4490;49.072;8.804;2023-02-15T09:35:47;2.30;99.90
8910;DHT22;4490;49.072;8.804;2023-02-15T09:38:12;2.30;99.90
8910;DHT22;4490;49.072;8.804;2023-02-15T09:40:48;2.40;99.90
8910;DHT22;4490;49.072;8.804;2023-02-15T09:43:57;2.40;99.90
8910;DHT22;4490;49.072;8.804;2023-02-15T09:58:05;2.40;99.90
8910;DHT22;4490;49.072;8.804;2023-02-15T10:20:02;2.80;99.90
8910;DHT22;4490;49.072;8.804;2023-02-15T10:23:00;2.80;99.90
8910;DHT22;4490;49.072;8.804;2023-02-15T10:28:53;2.80;99.90
8910;DHT22;4490;49.072;8.804;2023-02-15T10:31:40;2.90;99.90
8910;DHT22;4490;49.072;8.804;2023-02-15T10:40:14;2.90;99.90
8910;DHT22;4490;49.072;8.804;2023-02-15T10:48:38;3.00;99.90
8910;DHT22;4490;49.072;8.804;2023-02-15T10:51:36;3.00;99.90
8910;DHT22;4490;49.072;8.804;2023-02-15T11:05:21;3.10;99.90
8910;DHT22;4490;49.072;8.804;2023-02-15T11:07:51;3.10;99.90
8910;DHT22;4490;49.072;8.804;2023-02-15T11:10:35;3.20;99.90
8910;DHT22;4490;49.072;8.804;2023-02-15T11:13:09;3.20;99.90
8910;DHT22;4490;49.072;8.804;2023-02-15T11:15:39;3.20;99.90
8910;DHT22;4490;49.072;8.804;2023-02-15T11:23:21;3.40;99.90
8910;DHT22;4490;49.072;8.804;2023-02-15T11:26:01;3.30;99.90
8910;DHT22;4490;49.072;8.804;2023-02-15T11:28:33;3.40;99.90
8910;DHT22;4490;49.072;8.804;2023-02-15T11:31:09;3.30;99.90
8910;DHT22;4490;49.072;8.804;2023-02-15T11:33:39;3.40;99.90
8910;DHT22;4490;49.072;8.804;2023-02-15T11:36:12;3.40;99.90
8910;DHT22;4490;49.072;8.804;2023-02-15T11:38:39;3.50;99.90
8910;DHT22;4490;49.072;8.804;2023-02-15T11:41:14;3.50;99.90
8910;DHT22;4490;49.072;8.804;2023-02-15T11:43:46;3.50;99.90
8910;DHT22;4490;49.072;8.804;2023-02-15T11:46:14;3.50;99.90
8910;DHT22;4490;49.072;8.804;2023-02-15T11:48:40;3.50;99.90
8910;DHT22;4490;49.072;8.804;2023-02-15T11:51:13;3.50;99.90
8910;DHT22;4490;49.072;8.804;2023-02-15T11:53:41;3.50;99.90
8910;DHT22;4490;49.072;8.804;2023-02-15T11:56:22;3.50;99.90
8910;DHT22;4490;49.072;8.804;2023-02-15T11:59:06;3.50;99.90
8910;DHT22;4490;49.072;8.804;2023-02-15T12:01:37;3.50;99.90
8910;DHT22;4490;49.072;8.804;2023-02-15T12:04:20;3.50;99.90
8910;DHT22;4490;49.072;8.804;2023-02-15T12:07:13;3.60;99.90
8910;DHT22;4490;49.072;8.804;2023-02-15T12:10:04;3.60;99.90
8910;DHT22;4490;49.072;8.804;2023-02-15T12:12:35;3.70;99.90
8910;DHT22;4490;49.072;8.804;2023-02-15T12:15:08;3.80;99.90
8910;DHT22;4490;49.072;8.804;2023-02-15T12:17:49;3.80;99.90
8910;DHT22;4490;49.072;8.804;2023-02-15T12:22:53;3.90;99.90
8910;DHT22;4490;49.072;8.804;2023-02-15T12:27:51;4.00;99.90
8910;DHT22;4490;49.072;8.804;2023-02-15T12:30:21;4.10;99.90
8910;DHT22;4490;49.072;8.804;2023-02-15T12:32:50;4.10;99.90
8910;DHT22;4490;49.072;8.804;2023-02-15T12:35:31;4.20;99.90
8910;DHT22;4490;49.072;8.804;2023-02-15T12:38:04;4.30;99.90
8910;DHT22;4490;49.072;8.804;2023-02-15T12:40:32;4.50;99.90
8910;DHT22;4490;49.072;8.804;2023-02-15T12:42:59;4.50;99.90
8910;DHT22;4490;49.072;8.804;2023-02-15T12:45:32;4.60;99.90
8910;DHT22;4490;49.072;8.804;2023-02-15T12:50:42;4.80;99.90
8910;DHT22;4490;49.072;8.804;2023-02-15T12:53:15;4.90;99.90
8910;DHT22;4490;49.072;8.804;2023-02-15T12:55:54;4.90;99.90
8910;DHT22;4490;49.072;8.804;2023-02-15T12:58:24;5.00;99.90
8910;DHT22;4490;49.072;8.804;2023-02-15T13:01:14;5.00;99.90
8910;DHT22;4490;49.072;8.804;2023-02-15T13:04:00;5.10;99.90
8910;DHT22;4490;49.072;8.804;2023-02-15T13:06:27;5.10;99.90
8910;DHT22;4490;49.072;8.804;2023-02-15T13:08:55;5.10;99.90
8910;DHT22;4490;49.072;8.804;2023-02-15T13:11:26;5.20;99.90
8910;DHT22;4490;49.072;8.804;2023-02-15T13:16:34;5.30;99.90
8910;DHT22;4490;49.072;8.804;2023-02-15T13:19:16;5.40;99.90
8910;DHT22;4490;49.072;8.804;2023-02-15T13:21:49;5.50;99.90
8910;DHT22;4490;49.072;8.804;2023-02-15T13:24:21;5.60;99.90
8910;DHT22;4490;49.072;8.804;2023-02-15T13:26:48;5.70;99.90
8910;DHT22;4490;49.072;8.804;2023-02-15T13:29:33;5.80;99.90
8910;DHT22;4490;49.072;8.804;2023-02-15T13:32:07;5.90;99.90
8910;DHT22;4490;49.072;8.804;2023-02-15T13:34:38;6.00;99.90
8910;DHT22;4490;49.072;8.804;2023-02-15T13:37:20;6.00;99.90
8910;DHT22;4490;49.072;8.804;2023-02-15T13:42:45;6.20;99.90
8910;DHT22;4490;49.072;8.804;2023-02-15T13:45:33;6.30;99.90
8910;DHT22;4490;49.072;8.804;2023-02-15T13:56:32;6.70;99.90
8910;DHT22;4490;49.072;8.804;2023-02-15T14:30:12;7.80;99.90
8910;DHT22;4490;49.072;8.804;2023-02-15T14:32:42;7.90;99.90
8910;DHT22;4490;49.072;8.804;2023-02-15T14:35:16;8.00;99.90
8910;DHT22;4490;49.072;8.804;2023-02-15T14:37:51;8.00;99.90
8910;DHT22;4490;49.072;8.804;2023-02-15T14:48:52;8.30;99.90
8910;DHT22;4490;49.072;8.804;2023-02-15T14:56:44;9.10;99.90
8910;DHT22;4490;49.072;8.804;2023-02-15T14:59:23;9.40;99.00
8910;DHT22;4490;49.072;8.804;2023-02-15T15:04:38;10.00;95.40
8910;DHT22;4490;49.072;8.804;2023-02-15T15:07:19;10.20;94.30
8910;DHT22;4490;49.072;8.804;2023-02-15T15:09:57;10.50;93.10
8910;DHT22;4490;49.072;8.804;2023-02-15T15:14:50;10.80;90.60
8910;DHT22;4490;49.072;8.804;2023-02-15T15:20:13;11.10;90.00
8910;DHT22;4490;49.072;8.804;2023-02-15T15:22:40;11.20;88.30
8910;DHT22;4490;49.072;8.804;2023-02-15T15:25:10;11.20;87.20
8910;DHT22;4490;49.072;8.804;2023-02-15T15:35:35;11.40;84.10
8910;DHT22;4490;49.072;8.804;2023-02-15T15:49:10;10.80;81.90
8910;DHT22;4490;49.072;8.804;2023-02-15T15:51:40;10.60;81.90
8910;DHT22;4490;49.072;8.804;2023-02-15T15:54:11;10.30;82.50
8910;DHT22;4490;49.072;8.804;2023-02-15T15:56:38;10.00;82.60
8910;DHT22;4490;49.072;8.804;2023-02-15T15:59:11;9.70;84.30
8910;DHT22;4490;49.072;8.804;2023-02-15T16:01:42;9.40;84.90
8910;DHT22;4490;49.072;8.804;2023-02-15T16:04:13;9.10;85.90
8910;DHT22;4490;49.072;8.804;2023-02-15T16:06:40;8.80;86.70
8910;DHT22;4490;49.072;8.804;2023-02-15T16:09:26;8.60;87.30
8910;DHT22;4490;49.072;8.804;2023-02-15T16:11:59;8.40;88.00
8910;DHT22;4490;49.072;8.804;2023-02-15T16:14:31;8.10;88.60
8910;DHT22;4490;49.072;8.804;2023-02-15T16:16:59;7.80;89.20
8910;DHT22;4490;49.072;8.804;2023-02-15T16:19:38;7.60;89.80
8910;DHT22;4490;49.072;8.804;2023-02-15T16:22:09;7.40;90.30
8910;DHT22;4490;49.072;8.804;2023-02-15T16:27:37;7.00;91.10
8910;DHT22;4490;49.072;8.804;2023-02-15T16:30:24;6.80;91.50
8910;DHT22;4490;49.072;8.804;2023-02-15T16:33:22;6.60;91.90
8910;DHT22;4490;49.072;8.804;2023-02-15T16:35:55;6.40;92.40
8910;DHT22;4490;49.072;8.804;2023-02-15T16:38:45;6.10;92.70
8910;DHT22;4490;49.072;8.804;2023-02-15T16:41:26;6.00;93.30
8910;DHT22;4490;49.072;8.804;2023-02-15T16:43:54;5.80;93.60
8910;DHT22;4490;49.072;8.804;2023-02-15T16:46:30;5.60;94.00
8910;DHT22;4490;49.072;8.804;2023-02-15T16:49:02;5.50;94.70
8910;DHT22;4490;49.072;8.804;2023-02-15T16:51:31;5.40;95.40
8910;DHT22;4490;49.072;8.804;2023-02-15T16:54:03;5.30;96.00
8910;DHT22;4490;49.072;8.804;2023-02-15T16:56:31;5.20;96.60
8910;DHT22;4490;49.072;8.804;2023-02-15T16:58:58;5.10;97.10
8910;DHT22;4490;49.072;8.804;2023-02-15T17:01:27;4.90;97.50
8910;DHT22;4490;49.072;8.804;2023-02-15T17:09:31;4.70;99.20
8910;DHT22;4490;49.072;8.804;2023-02-15T17:11:57;4.60;99.60
8910;DHT22;4490;49.072;8.804;2023-02-15T17:14:31;4.50;99.90
8910;DHT22;4490;49.072;8.804;2023-02-15T17:17:11;4.40;99.90
8910;DHT22;4490;49.072;8.804;2023-02-15T17:22:17;4.30;99.90
8910;DHT22;4490;49.072;8.804;2023-02-15T17:24:46;4.20;99.90
8910;DHT22;4490;49.072;8.804;2023-02-15T17:27:24;4.10;99.90
8910;DHT22;4490;49.072;8.804;2023-02-15T17:29:52;4.10;99.90
8910;DHT22;4490;49.072;8.804;2023-02-15T17:32:26;4.00;99.90
8910;DHT22;4490;49.072;8.804;2023-02-15T17:35:18;4.00;99.90
8910;DHT22;4490;49.072;8.804;2023-02-15T17:37:48;3.90;99.90
8910;DHT22;4490;49.072;8.804;2023-02-15T17:40:27;3.80;99.90
8910;DHT22;4490;49.072;8.804;2023-02-15T17:42:54;3.80;99.90
8910;DHT22;4490;49.072;8.804;2023-02-15T17:45:21;3.70;99.90
8910;DHT22;4490;49.072;8.804;2023-02-15T17:47:48;3.70;99.90
8910;DHT22;4490;49.072;8.804;2023-02-15T17:50:22;3.60;99.90
8910;DHT22;4490;49.072;8.804;2023-02-15T17:52:49;3.60;99.90
8910;DHT22;4490;49.072;8.804;2023-02-15T17:55:17;3.50;99.90
8910;DHT22;4490;49.072;8.804;2023-02-15T17:58:04;3.50;99.90
8910;DHT22;4490;49.072;8.804;2023-02-15T18:00:32;3.40;99.90
8910;DHT22;4490;49.072;8.804;2023-02-15T18:03:18;3.40;99.90
8910;DHT22;4490;49.072;8.804;2023-02-15T18:06:02;3.40;99.90
8910;DHT22;4490;49.072;8.804;2023-02-15T18:08:47;3.30;99.90
8910;DHT22;4490;49.072;8.804;2023-02-15T18:11:31;3.20;99.90
8910;DHT22;4490;49.072;8.804;2023-02-15T18:14:04;3.20;99.90
8910;DHT22;4490;49.072;8.804;2023-02-15T18:16:38;3.20;99.90
8910;DHT22;4490;49.072;8.804;2023-02-15T18:19:14;3.20;99.90
8910;DHT22;4490;49.072;8.804;2023-02-15T18:21:40;3.10;99.90
8910;DHT22;4490;49.072;8.804;2023-02-15T18:24:17;3.10;99.90
8910;DHT22;4490;49.072;8.804;2023-02-15T18:26:44;3.00;99.90
8910;DHT22;4490;49.072;8.804;2023-02-15T18:29:09;3.00;99.90
8910;DHT22;4490;49.072;8.804;2023-02-15T18:31:35;3.00;99.90
8910;DHT22;4490;49.072;8.804;2023-02-15T18:34:01;2.90;99.90
8910;DHT22;4490;49.072;8.804;2023-02-15T18:36:42;2.90;99.90
8910;DHT22;4490;49.072;8.804;2023-02-15T18:41:54;2.90;99.90
8910;DHT22;4490;49.072;8.804;2023-02-15T18:44:20;2.80;99.90
8910;DHT22;4490;49.072;8.804;2023-02-15T18:46:45;2.70;99.90
8910;DHT22;4490;49.072;8.804;2023-02-15T18:49:11;2.70;99.90
8910;DHT22;4490;49.072;8.804;2023-02-15T18:51:37;2.60;99.90
8910;DHT22;4490;49.072;8.804;2023-02-15T18:54:09;2.60;99.90
8910;DHT22;4490;49.072;8.804;2023-02-15T18:56:37;2.50;99.90
8910;DHT22;4490;49.072;8.804;2023-02-15T18:59:03;2.50;99.90
8910;DHT22;4490;49.072;8.804;2023-02-15T19:01:29;2.50;99.90
8910;DHT22;4490;49.072;8.804;2023-02-15T19:03:55;2.50;99.90
8910;DHT22;4490;49.072;8.804;2023-02-15T19:06:21;2.40;99.90
8910;DHT22;4490;49.072;8.804;2023-02-15T19:08:51;2.40;99.90
8910;DHT22;4490;49.072;8.804;2023-02-15T19:11:22;2.40;99.90
8910;DHT22;4490;49.072;8.804;2023-02-15T19:13:50;2.40;99.90
8910;DHT22;4490;49.072;8.804;2023-02-15T19:18:51;2.30;99.90
8910;DHT22;4490;49.072;8.804;2023-02-15T19:21:17;2.30;99.90
8910;DHT22;4490;49.072;8.804;2023-02-15T19:23:47;2.30;99.90
8910;DHT22;4490;49.072;8.804;2023-02-15T19:26:13;2.30;99.90
8910;DHT22;4490;49.072;8.804;2023-02-15T19:28:39;2.20;99.90
8910;DHT22;4490;49.072;8.804;2023-02-15T19:31:04;2.20;99.90
8910;DHT22;4490;49.072;8.804;2023-02-15T19:33:30;2.20;99.90
8910;DHT22;4490;49.072;8.804;2023-02-15T19:35:55;2.20;99.90
8910;DHT22;4490;49.072;8.804;2023-02-15T19:38:25;2.20;99.90
8910;DHT22;4490;49.072;8.804;2023-02-15T19:40:52;2.10;99.90
8910;DHT22;4490;49.072;8.804;2023-02-15T19:43:21;2.10;99.90
8910;DHT22;4490;49.072;8.804;2023-02-15T19:45:52;2.10;99.90
8910;DHT22;4490;49.072;8.804;2023-02-15T19:48:18;2.10;99.90
8910;DHT22;4490;49.072;8.804;2023-02-15T19:50:45;2.00;99.90
8910;DHT22;4490;49.072;8.804;2023-02-15T19:53:29;2.00;99.90
8910;DHT22;4490;49.072;8.804;2023-02-15T19:55:55;2.00;99.90
8910;DHT22;4490;49.072;8.804;2023-02-15T19:58:21;2.00;99.90
8910;DHT22;4490;49.072;8.804;2023-02-15T20:00:49;1.90;99.90
8910;DHT22;4490;49.072;8.804;2023-02-15T20:03:15;1.90;99.90
8910;DHT22;4490;49.072;8.804;2023-02-15T20:05:42;1.90;99.90
8910;DHT22;4490;49.072;8.804;2023-02-15T20:08:19;1.80;99.90